createdAt,value
2023-05-15T00:02:22.482Z,65.54
2023-05-15T00:05:27.731Z,65.61
2023-05-15T00:08:32.029Z,65.30
2023-05-15T00:11:35.544Z,64.86
2023-05-15T00:14:39.516Z,64.97
2023-05-15T00:17:43.191Z,64.26
2023-05-15T00:20:48.571Z,64.07
2023-05-15T00:23:54.215Z,63.94
2023-05-15T00:26:58.457Z,63.68
2023-05-15T00:30:02.505Z,64.52
2023-05-15T00:33:07.889Z,64.48
2023-05-15T00:36:13.317Z,64.33
2023-05-15T00:39:17.960Z,65.77
2023-05-15T00:42:22.109Z,65.32
2023-05-15T00:45:28.280Z,65.62
2023-05-15T00:48:34.645Z,65.89
2023-05-15T00:51:42.078Z,65.79
2023-05-15T00:54:45.813Z,65.67
2023-05-15T00:57:50.784Z,65.91
2023-05-15T01:00:55.208Z,65.08
2023-05-15T01:03:59.456Z,64.59
2023-05-15T01:07:05.507Z,64.92
2023-05-15T01:10:10.830Z,64.16
2023-05-15T01:13:16.227Z,65.27
2023-05-15T01:16:23.200Z,65.13
2023-05-15T01:19:27.405Z,64.32
2023-05-15T01:22:53.157Z,64.23
2023-05-15T01:26:33.132Z,63.18
2023-05-15T01:29:45.484Z,62.78
2023-05-15T01:32:55.524Z,62.56
2023-05-15T01:36:06.084Z,63.80
2023-05-15T01:39:12.389Z,64.13
2023-05-15T01:42:20.624Z,64.10
2023-05-15T01:45:30.154Z,63.76
2023-05-15T01:48:36.627Z,63.09
2023-05-15T01:51:43.146Z,62.62
2023-05-15T01:54:49.234Z,63.28
2023-05-15T01:57:53.771Z,64.03
2023-05-15T02:01:00.962Z,62.78
2023-05-15T02:04:05.859Z,63.07
2023-05-15T02:07:10.958Z,62.99
2023-05-15T02:10:15.572Z,64.36
2023-05-15T02:13:26.381Z,63.74
2023-05-15T02:16:31.857Z,63.40
2023-05-15T02:19:36.010Z,63.01
2023-05-15T02:22:42.983Z,62.42
2023-05-15T02:26:02.047Z,61.91
2023-05-15T02:29:20.957Z,62.12
2023-05-15T02:32:32.578Z,62.71
2023-05-15T02:35:46.951Z,64.80
2023-05-15T02:38:53.586Z,64.08
2023-05-15T02:42:01.613Z,62.94
2023-05-15T02:45:07.448Z,62.52
2023-05-15T02:48:15.896Z,62.95
2023-05-15T02:51:20.652Z,62.69
2023-05-15T02:54:24.842Z,62.39
2023-05-15T02:57:28.996Z,62.49
2023-05-15T03:00:32.556Z,61.88
2023-05-15T03:03:38.416Z,61.69
2023-05-15T03:06:42.075Z,61.53
2023-05-15T03:09:46.123Z,61.48
2023-05-15T03:12:49.889Z,61.53
2023-05-15T03:15:55.126Z,61.50
2023-05-15T03:19:00.102Z,61.44
2023-05-15T03:22:04.328Z,61.19
2023-05-15T03:25:11.503Z,61.16
2023-05-15T03:28:15.708Z,61.73
2023-05-15T03:31:19.268Z,61.77
2023-05-15T03:34:26.344Z,61.46
2023-05-15T03:37:30.149Z,61.50
2023-05-15T03:40:35.497Z,61.58
2023-05-15T03:43:40.852Z,61.42
2023-05-15T03:46:45.454Z,61.75
2023-05-15T03:49:51.026Z,61.80
2023-05-15T03:52:55.220Z,61.82
2023-05-15T03:55:58.895Z,61.60
2023-05-15T03:59:03.538Z,62.24
2023-05-15T04:02:07.271Z,63.06
2023-05-15T04:05:12.998Z,63.24
2023-05-15T04:08:16.921Z,62.83
2023-05-15T04:11:21.813Z,62.32
2023-05-15T04:14:25.268Z,61.76
2023-05-15T04:17:31.277Z,61.15
2023-05-15T04:20:36.368Z,61.25
2023-05-15T04:23:41.798Z,63.04
2023-05-15T04:26:45.503Z,64.67
2023-05-15T04:29:49.669Z,64.89
2023-05-15T04:32:53.278Z,65.35
2023-05-15T04:35:59.074Z,65.54
2023-05-15T04:39:02.707Z,64.54
2023-05-15T04:42:07.739Z,64.82
2023-05-15T04:45:17.082Z,64.61
2023-05-15T04:48:23.594Z,64.36
2023-05-15T04:51:31.103Z,63.97
2023-05-15T04:54:35.149Z,64.57
2023-05-15T04:57:38.822Z,64.27
2023-05-15T05:00:42.787Z,64.75
2023-05-15T05:03:46.267Z,64.85
2023-05-15T05:06:56.654Z,64.02
2023-05-15T05:10:00.966Z,64.20
2023-05-15T05:13:05.244Z,65.39
2023-05-15T05:16:09.539Z,64.98
2023-05-15T05:19:14.352Z,64.52
2023-05-15T05:22:19.674Z,65.33
2023-05-15T05:25:24.186Z,65.90
2023-05-15T05:28:28.046Z,67.34
2023-05-15T05:31:31.997Z,66.58
2023-05-15T05:34:36.009Z,67.97
2023-05-15T05:37:41.666Z,68.11
2023-05-15T05:40:45.180Z,67.50
2023-05-15T05:43:49.171Z,67.55
2023-05-15T05:46:54.066Z,67.64
2023-05-15T05:49:58.214Z,68.50
2023-05-15T05:53:03.336Z,67.63
2023-05-15T05:56:09.871Z,66.96
2023-05-15T05:59:14.726Z,65.65
2023-05-15T06:02:23.077Z,65.25
2023-05-15T06:05:27.621Z,64.41
2023-05-15T06:08:33.079Z,63.86
2023-05-15T06:11:37.310Z,64.08
2023-05-15T06:14:41.236Z,63.64
2023-05-15T06:17:44.786Z,63.58
2023-05-15T06:20:48.796Z,63.28
2023-05-15T06:23:53.946Z,62.88
2023-05-15T06:26:59.016Z,62.26
2023-05-15T06:30:03.440Z,61.79
2023-05-15T06:33:09.631Z,62.49
2023-05-15T06:36:13.556Z,62.39
2023-05-15T06:39:19.437Z,62.19
2023-05-15T06:42:23.208Z,62.11
2023-05-15T06:45:27.911Z,61.93
2023-05-15T06:48:32.341Z,63.14
2023-05-15T06:51:36.847Z,62.97
2023-05-15T06:54:42.919Z,63.05
2023-05-15T06:57:47.018Z,64.76
2023-05-15T07:00:50.462Z,66.10
2023-05-15T07:04:15.965Z,68.47
2023-05-15T07:07:19.482Z,68.15
2023-05-15T07:10:27.361Z,68.10
2023-05-15T07:13:31.303Z,67.65
2023-05-15T07:16:35.308Z,66.77
2023-05-15T07:19:39.133Z,66.98
2023-05-15T07:22:55.104Z,67.55
2023-05-15T07:26:01.547Z,68.27
2023-05-15T07:29:07.503Z,67.34
2023-05-15T07:32:11.405Z,68.03
2023-05-15T07:35:15.396Z,67.76
2023-05-15T07:38:18.980Z,67.85
2023-05-15T07:41:24.505Z,67.48
2023-05-15T07:44:28.237Z,67.50
2023-05-15T07:47:32.459Z,66.48
2023-05-15T07:50:36.195Z,66.76
2023-05-15T07:53:40.582Z,66.69
2023-05-15T07:56:46.200Z,66.39
2023-05-15T07:59:50.285Z,65.13
2023-05-15T08:02:53.949Z,64.69
2023-05-15T08:06:00.164Z,65.20
2023-05-15T08:09:04.665Z,65.04
2023-05-15T08:12:21.348Z,64.47
2023-05-15T08:15:25.572Z,64.06
2023-05-15T08:18:29.989Z,65.14
2023-05-15T08:21:37.393Z,66.37
2023-05-15T08:24:44.945Z,66.39
2023-05-15T08:27:50.091Z,65.75
2023-05-15T08:30:53.996Z,67.11
2023-05-15T08:33:57.793Z,66.29
2023-05-15T08:37:06.093Z,66.28
2023-05-15T08:40:13.363Z,66.05
2023-05-15T08:43:22.843Z,65.91
2023-05-15T08:46:44.049Z,65.32
2023-05-15T08:50:04.997Z,66.76
2023-05-15T08:53:12.185Z,66.25
2023-05-15T08:56:16.375Z,67.17
2023-05-15T08:59:22.355Z,66.79
2023-05-15T09:02:27.272Z,66.62
2023-05-15T09:05:33.596Z,66.72
2023-05-15T09:08:38.529Z,66.91
2023-05-15T09:11:45.976Z,66.84
2023-05-15T09:14:51.572Z,65.80
2023-05-15T09:17:57.332Z,68.24
2023-05-15T09:21:26.945Z,66.74
2023-05-15T09:24:31.668Z,67.94
2023-05-15T09:27:44.105Z,67.14
2023-05-15T09:30:49.519Z,67.18
2023-05-15T09:34:02.159Z,66.54
2023-05-15T09:37:07.885Z,66.41
2023-05-15T09:40:15.693Z,65.72
2023-05-15T09:43:21.775Z,66.32
2023-05-15T09:46:28.279Z,65.37
2023-05-15T09:49:33.462Z,65.64
2023-05-15T09:52:37.863Z,66.04
2023-05-15T09:55:45.594Z,65.01
2023-05-15T09:58:56.915Z,64.17
2023-05-15T10:02:02.137Z,64.14
2023-05-15T10:05:06.535Z,65.59
2023-05-15T10:08:10.211Z,65.33
2023-05-15T10:11:14.126Z,66.13
2023-05-15T10:14:19.021Z,65.29
2023-05-15T10:17:25.011Z,66.98
2023-05-15T10:20:28.761Z,66.90
2023-05-15T10:23:35.784Z,65.32
2023-05-15T10:26:41.137Z,63.67
2023-05-15T10:29:46.528Z,63.73
2023-05-15T10:32:52.230Z,61.59
2023-05-15T10:35:57.867Z,59.69
2023-05-15T10:39:02.738Z,59.75
2023-05-15T10:42:09.246Z,58.69
2023-05-15T10:45:13.442Z,59.10
2023-05-15T10:48:20.606Z,59.11
2023-05-15T10:51:29.068Z,60.68
2023-05-15T10:54:33.703Z,61.60
2023-05-15T10:57:38.833Z,62.35
2023-05-15T11:00:45.029Z,61.19
2023-05-15T11:03:51.436Z,61.10
2023-05-15T11:07:14.388Z,62.11
2023-05-15T11:10:39.697Z,61.20
2023-05-15T11:14:15.051Z,60.37
2023-05-15T11:17:19.946Z,61.53
2023-05-15T11:20:35.849Z,61.14
2023-05-15T11:23:42.218Z,60.58
2023-05-15T11:26:48.296Z,60.59
2023-05-15T11:30:10.455Z,61.65
2023-05-15T11:33:14.879Z,60.47
2023-05-15T11:36:25.497Z,60.13
2023-05-15T11:39:29.993Z,60.99
2023-05-15T11:42:38.193Z,61.50
2023-05-15T11:45:43.161Z,62.86
2023-05-15T11:48:49.434Z,61.99
2023-05-15T11:51:57.042Z,61.41
2023-05-15T11:55:01.533Z,62.22
2023-05-15T11:58:09.485Z,63.63
2023-05-15T12:01:14.754Z,63.09
2023-05-15T12:04:24.609Z,61.78
2023-05-15T12:07:30.605Z,60.91
2023-05-15T12:10:41.602Z,60.72
2023-05-15T12:13:46.478Z,60.42
2023-05-15T12:16:53.499Z,60.49
2023-05-15T12:19:58.610Z,60.03
2023-05-15T12:23:04.527Z,62.72
2023-05-15T12:26:08.633Z,62.06
2023-05-15T12:29:13.476Z,63.08
2023-05-15T12:32:17.785Z,62.15
2023-05-15T12:35:22.893Z,62.02
2023-05-15T12:38:28.333Z,61.24
2023-05-15T12:41:32.740Z,60.87
2023-05-15T12:44:36.367Z,60.71
2023-05-15T12:47:40.549Z,61.45
2023-05-15T12:50:47.370Z,60.46
2023-05-15T12:53:55.260Z,59.90
2023-05-15T12:57:00.218Z,60.37
2023-05-15T13:00:08.083Z,60.15
2023-05-15T13:03:13.269Z,59.86
2023-05-15T13:06:17.791Z,60.18
2023-05-15T13:09:26.602Z,59.82
2023-05-15T13:12:37.059Z,59.70
2023-05-15T13:15:44.749Z,59.69
2023-05-15T13:18:49.068Z,59.93
2023-05-15T13:21:54.681Z,58.93
2023-05-15T13:25:00.476Z,59.60
2023-05-15T13:28:05.926Z,59.53
2023-05-15T13:31:10.224Z,58.86
2023-05-15T13:34:13.868Z,58.51
2023-05-15T13:37:18.199Z,60.39
2023-05-15T13:40:23.911Z,59.54
2023-05-15T13:43:29.887Z,60.08
2023-05-15T13:46:33.592Z,60.82
2023-05-15T13:49:38.263Z,60.51
2023-05-15T13:52:52.804Z,59.59
2023-05-15T13:55:59.423Z,58.97
2023-05-15T13:59:03.444Z,58.64
2023-05-15T14:02:07.763Z,57.88
2023-05-15T14:05:12.396Z,57.17
2023-05-15T14:08:17.437Z,56.99
2023-05-15T14:11:22.933Z,56.59
2023-05-15T14:14:26.957Z,55.36
2023-05-15T14:17:30.684Z,55.74
2023-05-15T14:20:35.275Z,55.49
2023-05-15T14:23:40.153Z,55.29
2023-05-15T14:26:46.072Z,55.47
2023-05-15T14:29:50.012Z,55.62
2023-05-15T14:32:54.579Z,56.30
2023-05-15T14:36:01.042Z,56.54
2023-05-15T14:39:06.337Z,56.69
2023-05-15T14:42:12.732Z,56.26
2023-05-15T14:45:19.897Z,56.41
2023-05-15T14:48:25.162Z,56.96
2023-05-15T14:51:29.707Z,57.30
2023-05-15T14:54:33.364Z,57.48
2023-05-15T14:57:39.437Z,57.40
2023-05-15T15:00:43.138Z,57.23
2023-05-15T15:03:53.609Z,58.13
2023-05-15T15:06:58.618Z,58.34
2023-05-15T15:10:03.058Z,58.15
2023-05-15T15:13:10.353Z,58.16
2023-05-15T15:16:15.057Z,57.85
2023-05-15T15:19:21.574Z,57.88
2023-05-15T15:22:25.860Z,59.01
2023-05-15T15:25:32.168Z,58.60
2023-05-15T15:28:38.863Z,59.32
2023-05-15T15:31:44.945Z,59.89
2023-05-15T15:34:49.398Z,60.32
2023-05-15T15:37:53.516Z,61.74
2023-05-15T15:40:57.783Z,61.76
2023-05-15T15:44:03.525Z,62.41
2023-05-15T15:47:07.625Z,61.96
2023-05-15T15:50:11.898Z,64.23
2023-05-15T15:53:16.304Z,66.06
2023-05-15T15:56:19.919Z,68.83
2023-05-15T15:59:25.425Z,68.59
2023-05-15T16:02:29.462Z,69.56
2023-05-15T16:05:33.788Z,69.06
2023-05-15T16:08:37.349Z,68.25
2023-05-15T16:11:41.889Z,68.43
2023-05-15T16:14:46.973Z,68.77
2023-05-15T16:17:53.793Z,67.98
2023-05-15T16:20:58.471Z,68.05
2023-05-15T16:24:02.700Z,69.25
2023-05-15T16:27:06.582Z,70.21
2023-05-15T16:30:14.046Z,70.21
2023-05-15T16:33:18.733Z,67.21
2023-05-15T16:36:22.969Z,66.87
2023-05-15T16:39:27.215Z,66.08
2023-05-15T16:42:31.188Z,66.30
2023-05-15T16:45:36.443Z,65.07
2023-05-15T16:48:40.768Z,65.39
2023-05-15T16:51:45.362Z,65.40
2023-05-15T16:54:50.172Z,65.82
2023-05-15T16:57:54.280Z,65.17
2023-05-15T17:01:00.433Z,64.86
2023-05-15T17:04:04.431Z,65.47
2023-05-15T17:07:09.356Z,64.76
2023-05-15T17:10:14.352Z,64.63
2023-05-15T17:13:18.394Z,64.58
2023-05-15T17:16:25.167Z,65.23
2023-05-15T17:19:29.060Z,65.20
2023-05-15T17:22:34.350Z,65.00
2023-05-15T17:25:38.755Z,65.55
2023-05-15T17:28:42.317Z,65.87
2023-05-15T17:31:48.707Z,66.06
2023-05-15T17:34:53.593Z,66.50
2023-05-15T17:37:57.839Z,66.23
2023-05-15T17:41:02.476Z,65.78
2023-05-15T17:44:07.297Z,65.60
2023-05-15T17:47:12.257Z,64.86
2023-05-15T17:50:17.617Z,64.83
2023-05-15T17:53:22.747Z,64.68
2023-05-15T17:56:27.477Z,64.35
2023-05-15T17:59:31.300Z,64.36
2023-05-15T18:02:36.607Z,64.51
2023-05-15T18:05:40.132Z,65.21
2023-05-15T18:08:44.662Z,65.68
2023-05-15T18:11:48.154Z,65.70
2023-05-15T18:14:52.309Z,66.22
2023-05-15T18:17:57.465Z,66.27
2023-05-15T18:21:02.044Z,67.32
2023-05-15T18:24:06.050Z,69.23
2023-05-15T18:27:10.784Z,69.02
2023-05-15T18:30:15.547Z,69.99
2023-05-15T18:33:21.702Z,68.95
2023-05-15T18:36:26.032Z,68.50
2023-05-15T18:39:30.117Z,68.06
2023-05-15T18:42:34.092Z,68.49
2023-05-15T18:45:39.014Z,67.96
2023-05-15T18:48:44.069Z,68.70
2023-05-15T18:51:48.032Z,67.68
2023-05-15T18:54:52.680Z,67.62
2023-05-15T18:57:57.177Z,67.14
2023-05-15T19:01:01.848Z,67.52
2023-05-15T19:04:07.263Z,69.49
2023-05-15T19:07:11.026Z,68.17
2023-05-15T19:10:17.463Z,67.78
2023-05-15T19:13:21.615Z,67.48
2023-05-15T19:16:28.637Z,67.65
2023-05-15T19:19:33.869Z,68.02
2023-05-15T19:22:38.231Z,67.77
2023-05-15T19:25:41.761Z,67.21
2023-05-15T19:28:45.645Z,66.94
2023-05-15T19:31:49.972Z,66.54
2023-05-15T19:34:56.130Z,66.17
2023-05-15T19:37:59.944Z,65.80
2023-05-15T19:41:04.330Z,65.53
2023-05-15T19:44:08.422Z,65.14
2023-05-15T19:47:12.242Z,64.93
2023-05-15T19:50:18.052Z,64.72
2023-05-15T19:53:22.281Z,64.52
2023-05-15T19:56:26.689Z,64.03
2023-05-15T19:59:30.846Z,64.17
2023-05-15T20:02:34.917Z,63.98
2023-05-15T20:05:42.201Z,63.92
2023-05-15T20:08:46.111Z,64.54
2023-05-15T20:11:50.405Z,64.62
2023-05-15T20:14:54.263Z,64.46
2023-05-15T20:17:58.787Z,64.29
2023-05-15T20:21:04.925Z,64.90
2023-05-15T20:24:10.601Z,64.83
2023-05-15T20:27:14.376Z,64.87
2023-05-15T20:30:18.865Z,65.14
2023-05-15T20:33:23.723Z,65.14
2023-05-15T20:36:32.679Z,65.43
2023-05-15T20:39:36.486Z,65.73
2023-05-15T20:42:41.039Z,65.26
2023-05-15T20:45:44.973Z,64.77
2023-05-15T20:48:49.148Z,63.95
2023-05-15T20:51:55.597Z,63.88
2023-05-15T20:55:05.974Z,63.67
2023-05-15T20:58:10.995Z,63.37
2023-05-15T21:01:15.432Z,63.34
2023-05-15T21:04:19.160Z,63.34
2023-05-15T21:07:24.633Z,63.49
2023-05-15T21:10:28.492Z,63.62
2023-05-15T21:13:33.327Z,64.00
2023-05-15T21:16:37.126Z,63.85
2023-05-15T21:19:41.706Z,63.70
2023-05-15T21:22:47.777Z,63.48
2023-05-15T21:25:51.973Z,63.48
2023-05-15T21:28:56.699Z,63.90
2023-05-15T21:32:01.224Z,63.48
2023-05-15T21:35:05.020Z,64.05
2023-05-15T21:38:10.687Z,63.73
2023-05-15T21:41:14.504Z,63.69
2023-05-15T21:44:18.832Z,63.99
2023-05-15T21:47:22.765Z,63.81
2023-05-15T21:50:28.672Z,63.92
2023-05-15T21:53:34.296Z,63.32
2023-05-15T21:56:43.083Z,63.29
2023-05-15T21:59:46.806Z,63.41
2023-05-15T22:02:51.057Z,63.88
2023-05-15T22:05:56.583Z,64.47
2023-05-15T22:09:03.489Z,64.36
2023-05-15T22:12:07.873Z,64.72
2023-05-15T22:15:14.679Z,64.76
2023-05-15T22:18:18.712Z,64.13
2023-05-15T22:21:35.929Z,64.40
2023-05-15T22:24:42.571Z,64.32
2023-05-15T22:27:47.638Z,63.94
2023-05-15T22:30:59.518Z,63.96
2023-05-15T22:34:04.883Z,63.47
2023-05-15T22:37:16.417Z,63.26
2023-05-15T22:40:23.698Z,65.03
2023-05-15T22:43:28.328Z,64.55
2023-05-15T22:46:34.861Z,66.22
2023-05-15T22:49:39.025Z,66.36
2023-05-15T22:52:43.340Z,65.51
2023-05-15T22:55:48.698Z,65.28
2023-05-15T22:58:56.319Z,65.03
2023-05-15T23:05:27.758Z,65.39
2023-05-15T23:08:33.687Z,65.85
2023-05-15T23:11:41.393Z,66.04
2023-05-15T23:14:46.303Z,65.35
2023-05-15T23:17:50.577Z,65.06
2023-05-15T23:21:03.047Z,64.76
2023-05-15T23:24:07.692Z,64.51
2023-05-15T23:27:12.971Z,64.16
2023-05-15T23:30:17.410Z,64.16
2023-05-15T23:33:22.123Z,64.00
2023-05-15T23:36:26.169Z,64.21
2023-05-15T23:39:29.621Z,64.17
2023-05-15T23:42:34.708Z,64.26
2023-05-15T23:45:45.291Z,64.21
2023-05-15T23:49:03.864Z,64.05
2023-05-15T23:52:26.250Z,63.47
2023-05-15T23:59:25.760Z,63.98
